Aeroporto :
LOGIN :

Iscrizione | Disclaimer

   EN    FR    IT 

 










Sommario :    VFR   VFR Marginale   IFR   IFR Intensivo   IFR Molto Intensivo
Visibilità : 
Base nubi : 
>= 8 km
>= 3000ft
5 / 8 km
1000 / 3000 ft
1500m / 5 km
500 / 1000 ft
800 / 1500m
200 / 500 ft
< 800m
< 200 ft
Simboli :   Temporali  Nebbia  Neve Forte  Precipitazioni Forti  Vento > 20 kt
SIGMETs :   Varie  Temporali  Ghiacco  Turbolenza  Onda orograficha  Ceneri Vulcaniche







- Altitudine del aeroporto : 72 ft
- Codice IATA : UDE


EHVK - Volkel Airbase

ULTIMO METAR :
  • 211155Z AUTO 26007KT 240V320 9999 SCT025 13/08 Q1034 BLU 26007KT 9999 SCT025

METARs OBSOLETI :
  • 211151Z AUTO 26006KT 230V320 9999 BKN025 14/08 Q1034 BLU 26007KT 9999 SCT025
  • 211129Z AUTO 23008KT 200V280 9999 BKN024 14/09 Q1034 WHT 22007KT 9999 FEW020
  • 211126Z AUTO 24008KT 200V280 9999 FEW021/// SCT024/// 14/08 Q1034 WHT 22007KT 9999 FEW020
  • 211114Z AUTO 23007KT 200V270 9999 SCT021 14/09 Q1034 WHT 22007KT 9999 FEW020
  • 211055Z AUTO 23008KT 210V290 9999 SCT370 14/09 Q1034 BLU 22007KT 9999 FEW020
  • 211025Z AUTO 23008KT 210V270 9999 NCD 13/08 Q1034 BLU 22007KT 9999 FEW020
  • 210955Z AUTO 22007KT 210V270 9999 NCD 13/08 Q1034 BLU 22007KT 9999 FEW020
  • 210925Z AUTO 23007KT 220V280 9999 NCD 12/08 Q1034 BLU 23006KT CAVOK

TAF TAF EHVK
Valido dal 21 a 10 ore il 21 a 22 ore UTC


210940Z 2110/2122 23007KT 9999 FEW020
BECMG 2117/2120 01003KT
Nessun NOTAM noto per questo aeroporto.



MetMap, La meteo Aeronautica in un colpo d'occhio ! - Copyright ORBIFLY Dicembre 2007 - Disclaimer

ORBIFLY MET'MAP TEAM :

Programmazione e sviluppo : Alexandra Zaïnal
Concezione e sviluppo : Baudouin d'Aumeries
Co-Programmazione e sviluppo : Marc-Olivier Méhu
Supporto tecnico e logistico : Manuel Goepfert
Aiuto per la traduzione : Arnaldo La Scala

Contatto : metmap@orbifly.com




FONTI E CREDITI :

   NOAA